• Join FlightAware (Why Join?)
  • Login
  • US Flag 
11:22PM EDT


 

Airport Tracker/Info


-or-


 

Live Flight TrackerFlight Track Log ✈ UAL4434 ✈ 14-Oct-2013 ✈ KMCI - KEWR

Flight Track Log - Related Links

Times and Time Zones

All times are in EDT time to prevent confusion due to time zone crossing. See the UAL4434 flight status page for this flight to view local times or setup timezone preferences in your user account.

Time Position Orientation Groundspeed Altitude Reporting Facility
EDT Latitude Longitude Course Direction KTS MPH feet Rate Location/Type
07:05AM 39.2833 -94.6833 84° East 158 182 1,700  Level Kansas City TRACON
07:05AM 39.2833 -94.6833 84° East 159 183 1,900 1,680 Climbing Kansas City TRACON
07:06AM 39.2967 -94.5936 79° East 201 231 4,300 1,860 Climbing Kansas City Center
07:07AM 39.3089 -94.5106 79° East 245 282 6,400 2,400 Climbing Kansas City Center
07:08AM 39.3880 -94.1383 84° East  Level Estimated
07:08AM 39.3217 -94.4194 80° East 264 304 9,100  Level Kansas City Center
07:09AM 39.4101 -93.9942 80° East  Level Estimated
07:09AM 39.3364 -94.3119 80° East 279 321 11,200  Level Kansas City Center
07:10AM 39.4225 -93.8481 84° East  Level FlightAware Approximate
07:10AM 39.3517 -94.2025 80° East 322 371 12,300  Level Kansas City Center
07:11AM 39.3686 -94.0800 80° East 359 413 13,500 1,140 Climbing Kansas City Center
07:12AM 39.3861 -93.9508 80° East 380 437 14,700 1,320 Climbing Kansas City Center
07:13AM 39.4056 -93.7928 81° East 397 457 16,200 1,320 Climbing Kansas City Center
07:14AM 39.4239 -93.6644 79° East 408 470 17,400 1,080 Climbing Kansas City Center
07:15AM 39.4419 -93.5175 81° East 416 479 18,400 1,140 Climbing Kansas City Center
07:16AM 39.4589 -93.3686 82° East 420 483 19,800 1,320 Climbing Kansas City Center
07:17AM 39.4753 -93.2178 82° East 425 489 21,100 1,380 Climbing Kansas City Center
07:18AM 39.4972 -93.0394 81° East 423 487 22,600 1,380 Climbing Kansas City Center
07:19AM 39.5144 -92.8875 82° East 427 491 23,900 1,260 Climbing Kansas City Center
07:20AM 39.5317 -92.7344 82° East 431 496 25,200 1,260 Climbing Kansas City Center
07:21AM 39.5500 -92.5803 81° East 435 501 26,500 1,260 Climbing Kansas City Center
07:22AM 39.5656 -92.4267 82° East 436 502 27,800 1,260 Climbing Kansas City Center
07:23AM 39.5831 -92.2753 81° East 434 499 29,100 1,200 Climbing Kansas City Center
07:24AM 39.5994 -92.1242 82° East 431 496 30,300 1,140 Climbing Kansas City Center
07:25AM 39.6161 -91.9706 82° East 433 498 31,400 960 Climbing Kansas City Center
07:26AM 39.6314 -91.8172 83° East 434 499 32,300 840 Climbing Kansas City Center
07:27AM 39.6492 -91.6594 82° East 440 506 33,200 900 Climbing Kansas City Center
07:28AM 39.6681 -91.4689 83° East 446 513 34,200 780 Climbing Kansas City Center
07:29AM 39.6867 -91.3025 82° East 455 524 34,900 360 Climbing Kansas City Center
07:30AM 39.7042 -91.1342 82° East 465 535 35,000  Climbing Kansas City Center
07:31AM 39.7208 -90.9567 83° East 485 558 35,000  Level Kansas City Center
07:32AM 39.7389 -90.7719 83° East 505 581 35,000  Level Kansas City Center
07:33AM 39.7567 -90.5958 82° East 520 598 35,000  Level Kansas City Center
07:34AM 39.7753 -90.3981 83° East 539 620 35,000  Level Kansas City Center
07:35AM 39.7928 -90.2006 83° East 550 633 35,000  Level Kansas City Center
07:36AM 39.8097 -90.0047 84° East 550 633 35,000  Level Kansas City Center
07:37AM 39.8261 -89.8158 83° East 539 620 35,000  Level Kansas City Center
07:38AM 39.8403 -89.5900 85° East 528 608 35,000  Level Kansas City Center
07:40AM 39.8406 -89.4006 90° East 527 606 35,000  Level Kansas City Center
07:41AM 39.8414 -89.2122 90° East 525 604 35,000  Level Kansas City Center
07:42AM 39.8419 -89.0247 90° East 523 602 35,000  Level Kansas City Center
07:43AM 39.8419 -88.8369 90° East 522 601 35,000  Level Kansas City Center
07:44AM 39.8414 -88.6492 90° East 521 600 35,000  Level Kansas City Center
07:45AM 39.8428 -88.4600 89° East 523 602 35,000  Level Kansas City Center
07:46AM 39.8433 -88.2683 90° East 528 608 35,000  Level Kansas City Center
07:47AM 39.8414 -88.0817 91° East 525 604 35,000  Level Kansas City Center
07:48AM 39.8378 -87.8958 91° East 519 597 35,000  Level Kansas City Center
07:49AM 39.8353 -87.7067 91° East 518 596 35,000  Level Kansas City Center
07:50AM 39.8333 -87.4742 91° East 522 601 35,000  Level Indianapolis Center
07:51AM 39.8306 -87.2853 91° East 524 603 35,000  Level Indianapolis Center
07:52AM 39.8286 -87.0964 91° East 523 602 35,000  Level Indianapolis Center
07:53AM 39.8256 -86.9092 91° East 520 598 35,000  Level Indianapolis Center
07:54AM 39.8214 -86.7211 92° East 521 600 35,000  Level Indianapolis Center
07:55AM 39.8181 -86.5342 91° East 519 597 35,000  Level Indianapolis Center
07:56AM 39.8244 -86.3417 87° East 518 596 35,000  Level Indianapolis Center
07:57AM 39.8592 -86.1619 76° East 515 593 35,000  Level Indianapolis Center
07:58AM 39.8967 -85.9858 74° East 505 581 35,000  Level Indianapolis Center
07:59AM 39.9331 -85.8119 75° East 500 575 35,000  Level Indianapolis Center
08:00AM 39.9758 -85.6044 75° East 497 572 35,000  Level Indianapolis Center
08:01AM 40.0117 -85.4311 75° East 496 571 35,000  Level Indianapolis Center
08:02AM 40.0472 -85.2589 75° East 494 568 35,000  Level Indianapolis Center
08:03AM 40.0814 -85.0886 75° East 489 563 35,000  Level Indianapolis Center
08:04AM 40.1164 -84.9175 75° East 489 563 35,000  Level Indianapolis Center
08:05AM 40.1497 -84.7478 76° East 488 562 35,000  Level Indianapolis Center
08:06AM 40.1828 -84.5778 76° East 485 558 35,000  Level Indianapolis Center
08:07AM 40.2178 -84.4069 75° East 484 557 35,000  Level Indianapolis Center
08:08AM 40.2581 -84.2033 75° East 482 555 35,000  Level Indianapolis Center
08:09AM 40.2944 -84.0358 74° East 478 550 35,000  Level Indianapolis Center
08:10AM 40.3594 -83.8886 60° Northeast 465 535 35,000  Level Indianapolis Center
08:11AM 40.4267 -83.7433 59° Northeast 463 533 35,000  Level Indianapolis Center
08:12AM 40.4928 -83.5964 59° Northeast 465 535 35,000  Level Indianapolis Center
08:13AM 40.5594 -83.4506 59° Northeast 463 533 35,000  Level Indianapolis Center
08:14AM 40.6261 -83.3042 59° Northeast 465 535 35,000  Level Indianapolis Center
08:15AM 40.7003 -83.1364 60° Northeast 462 532 35,000  Level Indianapolis Center
08:16AM 40.7483 -82.9761 68° East 465 535 35,000  Level Indianapolis Center
08:17AM 40.7897 -82.8119 72° East 467 537 35,000  Level Indianapolis Center
08:18AM 40.8319 -82.6497 71° East 465 535 35,000  Level Indianapolis Center
08:19AM 40.8747 -82.4872 71° East 466 536 35,000 300 Level Indianapolis Center
08:20AM 40.9142 -82.3228 72° East 464 534 35,700 600 Climbing Cleveland Center
08:21AM 40.9544 -82.1639 71° East 455 524 36,300 600 Climbing Cleveland Center
08:23AM 40.9950 -82.0053 71° East 453 521 37,000 300 Climbing Cleveland Center
08:24AM 41.0342 -81.8458 72° East 454 522 37,000  Level Cleveland Center
08:25AM 41.0814 -81.6575 72° East 462 532 37,000  Level Cleveland Center
08:26AM 41.1217 -81.4947 72° East 468 539 37,000  Level Cleveland Center
08:27AM 41.1622 -81.3300 72° East 471 542 37,000  Level Cleveland Center
08:28AM 41.2025 -81.1653 72° East 470 541 37,000  Level Cleveland Center
08:29AM 41.2431 -80.9983 72° East 473 544 37,000  Level Cleveland Center
08:30AM 41.2894 -80.8006 73° East 476 548 37,000  Level Cleveland Center
08:31AM 41.3300 -80.6311 72° East 478 550 37,000  Level Cleveland Center
08:32AM 41.3700 -80.4614 73° East 478 550 37,000  Level Cleveland Center
08:33AM 41.4092 -80.2928 73° East 474 545 37,000  Level Cleveland Center
08:34AM 41.4492 -80.1244 72° East 476 548 37,000  Level Cleveland Center
08:35AM 41.4950 -79.9303 72° East 476 548 37,000  Level Cleveland Center
08:36AM 41.5322 -79.7614 74° East 477 549 37,000  Level Cleveland Center
08:37AM 41.5619 -79.5908 77° East 479 551 37,000  Level Cleveland Center
08:38AM 41.5531 -79.4167 94° East 476 548 37,000  Level Cleveland Center
08:39AM 41.5403 -79.2411 95° East 477 549 37,000  Level Cleveland Center
08:40AM 41.5278 -79.0667 95° East 475 547 37,000  Level Cleveland Center
08:41AM 41.5133 -78.8556 95° East 477 549 37,000  Level Cleveland Center
08:42AM 41.4992 -78.6792 96° East 476 548 37,000 -300 Level Cleveland Center
08:43AM 41.4858 -78.5061 96° East 471 542 36,500 -780 Descending Cleveland Center
08:44AM 41.4731 -78.3333 96° East 468 539 35,500 -1,020 Descending Cleveland Center
08:45AM 41.4589 -78.1617 96° East 467 537 34,400 -1,560 Descending Cleveland Center
08:46AM 41.4478 -78.0256 96° East 472 543 32,900 -1,920 Descending New York Center
08:47AM 41.4333 -77.8494 96° East 472 543 31,200 -960 Descending New York Center
08:48AM 41.4189 -77.6708 96° East 472 543 31,000 -120 Descending New York Center
08:49AM 41.4039 -77.4950 96° East 472 543 31,000 -60 Level New York Center
08:50AM 41.3778 -77.3267 102° East 472 543 30,900 -780 Descending New York Center
08:51AM 41.3475 -77.1578 103° East 467 537 29,500 -1,380 Descending New York Center
08:52AM 41.3169 -76.9892 104° East 467 537 28,200 -1,680 Descending New York Center
08:53AM 41.2842 -76.8175 104° East 472 543 26,200 -2,100 Descending New York Center
08:54AM 41.2547 -76.6575 104° East 466 536 24,000 -2,100 Descending New York Center
08:55AM 41.2250 -76.4978 104° East 452 520 22,100 -1,920 Descending New York Center
08:56AM 41.1967 -76.3464 104° East 440 506 20,200 -1,740 Descending New York Center
08:57AM 41.1717 -76.2119 104° East 427 491 18,700 -1,140 Descending New York Center
08:58AM 41.1417 -76.0497 104° East 412 474 18,000 -660 Descending New York Center
08:59AM 41.1039 -75.9119 110° East 402 463 17,500 -900 Descending New York Center
09:00AM 41.0681 -75.7744 109° East 397 457 16,300 -780 Descending New York Center
09:01AM 41.0356 -75.6564 110° East 385 443 16,000 -840 Descending New York Center
09:02AM 40.9950 -75.5242 112° Southeast 378 435 14,700 -1,560 Descending New York Center
09:03AM 40.9625 -75.4011 109° East 378 435 12,900 -1,680 Descending New York Center
09:04AM 40.9294 -75.2864 111° Southeast 354 407 11,400 -1,680 Descending New York Center
09:05AM 40.8983 -75.1717 110° East 307 353 9,600 -1,620 Descending New York Center
09:06AM 40.8708 -75.0739 110° East 294 338 8,200 -1,200 Descending New York Center
09:07AM 40.8367 -74.9811 116° Southeast 288 331 7,200 -600 Descending New York Center
09:08AM 40.7997 -74.9047 123° Southeast 276 318 7,000 -540 Descending New York Center
09:09AM 40.7592 -74.8119 120° Southeast 281 323 6,200 -540 Descending New York Center
09:10AM 40.7164 -74.7164 121° Southeast 281 323 6,000 -540 Descending New York Center
09:11AM 40.6817 -74.6406 121° Southeast 281 323 5,200 -540 Descending New York Center
09:12AM 40.6342 -74.5586 127° Southeast 271 312 5,000 -240 Descending New York Center
09:13AM 40.5925 -74.4933 130° Southeast 259 298 4,800 -600 Descending New York Center
09:14AM 40.5428 -74.4169 131° Southeast 259 298 3,900 -900 Descending New York Center
09:15AM 40.5114 -74.3581 125° Southeast 237 273 3,100 -420 Descending New York Center
09:16AM 40.5053 -74.2811 96° East 185 213 3,100 -180 Level New York Center
09:17AM 40.5561 -74.2511 24° Northeast 160 184 2,800 -660 Descending New York Center
09:18AM 40.6072 -74.2181 26° Northeast 181 208 1,800 -900 Descending New York Center
09:19AM 40.6369 -74.1978 27° Northeast 159 183 1,000 -720 Descending New York Center
09:20AM 40.6772 -74.1750 23° Northeast 142 163 400 -600 Descending New York Center